Time;durP1;ratioP1;P1;durP2;ratioP2;P2;SDS_P1;SDS_P2;PMS_P1;PMS_P2;Temp;Humidity;BMP_temperature;BMP_pressure;BME280_temperature;BME280_humidity;BME280_pressure;Samples;Min_cycle;Max_cycle;Signal;HPM_P1;HPM_P2
2022/05/10 00:00:35;;;;;;;20.37;16.70;;;;;;;12.51;100.00;95683.47;4975248;28;20282;-62
2022/05/10 00:03:04;;;;;;;17.67;15.77;;;;;;;12.46;100.00;95681.94;4975988;28;20235;-62
2022/05/10 00:05:41;;;;;;;17.93;16.03;;;;;;;12.43;100.00;95682.00;4975086;28;20249;-62
2022/05/10 00:08:10;;;;;;;18.50;16.60;;;;;;;12.43;100.00;95682.00;4974859;28;20196;-61
2022/05/10 00:10:36;;;;;;;18.77;16.03;;;;;;;12.42;100.00;95673.00;4975235;28;20192;-62
2022/05/10 00:13:03;;;;;;;18.60;16.67;;;;;;;12.35;100.00;95675.03;4975004;28;20203;-63
2022/05/10 00:15:28;;;;;;;18.07;16.03;;;;;;;12.30;100.00;95661.78;4975250;28;20257;-75
2022/05/10 00:17:54;;;;;;;17.63;15.80;;;;;;;12.27;100.00;95665.31;4975029;28;20242;-59
2022/05/10 00:20:23;;;;;;;18.20;15.90;;;;;;;12.29;100.00;95662.97;4975217;28;20202;-59
2022/05/10 00:22:48;;;;;;;17.30;15.60;;;;;;;12.25;100.00;95659.50;4974841;28;20222;-59
2022/05/10 00:25:17;;;;;;;17.63;15.73;;;;;;;12.18;100.00;95659.56;4975631;28;20265;-59
2022/05/10 00:27:42;;;;;;;16.83;14.93;;;;;;;12.10;100.00;95658.84;4974829;28;20195;-60
2022/05/10 00:30:08;;;;;;;16.97;15.27;;;;;;;12.11;100.00;95648.69;4974926;28;20200;-58
2022/05/10 00:32:36;;;;;;;17.60;15.70;;;;;;;12.11;100.00;95648.69;4974760;28;20268;-58
2022/05/10 00:35:02;;;;;;;16.80;15.10;;;;;;;12.10;100.00;95647.13;4974691;28;20197;-58
2022/05/10 00:37:29;;;;;;;17.17;15.03;;;;;;;12.03;100.00;95644.47;4974643;28;20206;-72
2022/05/10 00:39:54;;;;;;;16.23;14.67;;;;;;;12.03;100.00;95630.78;4974882;28;20192;-72
2022/05/10 00:42:27;;;;;;;16.83;15.03;;;;;;;11.98;100.00;95634.72;4974947;28;20196;-71
2022/05/10 00:45:08;;;;;;;16.33;14.73;;;;;;;11.98;100.00;95633.97;4974572;28;20273;-71
2022/05/10 00:47:43;;;;;;;21.40;15.47;;;;;;;11.92;100.00;95624.63;4974524;28;20202;-71
2022/05/10 00:50:32;;;;;;;16.97;15.17;;;;;;;11.80;100.00;95622.41;4974536;28;20223;-71
2022/05/10 00:53:04;;;;;;;16.73;14.70;;;;;;;11.75;100.00;95631.03;4975052;28;20202;-61
2022/05/10 00:55:35;;;;;;;16.80;15.00;;;;;;;11.72;100.00;95621.69;4974468;28;20220;-61
2022/05/10 00:58:16;;;;;;;17.97;14.83;;;;;;;11.65;100.00;95623.72;4974482;28;20191;-61
2022/05/10 01:00:42;;;;;;;17.33;14.67;;;;;;;11.61;100.00;95620.22;4974063;28;20178;-62
2022/05/10 01:03:10;;;;;;;19.93;14.43;;;;;;;11.57;100.00;95613.97;4974306;28;20245;-61
2022/05/10 01:05:49;;;;;;;15.37;13.83;;;;;;;11.57;100.00;95617.50;4974604;28;20240;-61
2022/05/10 01:08:26;;;;;;;15.43;13.83;;;;;;;11.61;100.00;95609.28;4974791;28;20252;-60
2022/05/10 01:11:03;;;;;;;15.27;13.10;;;;;;;11.61;100.00;95610.06;4974524;28;20303;-59
2022/05/10 01:13:40;;;;;;;14.83;13.40;;;;;;;11.54;100.00;95604.63;4974668;28;20200;-71
2022/05/10 01:16:18;;;;;;;15.03;13.57;;;;;;;11.51;100.00;95610.13;4973992;28;20189;-72
2022/05/10 01:18:44;;;;;;;14.90;13.40;;;;;;;11.40;100.00;95610.19;4973994;28;20187;-71
2022/05/10 01:21:26;;;;;;;16.30;13.10;;;;;;;11.39;100.00;95602.41;4973758;28;20650;-71
2022/05/10 01:24:02;;;;;;;16.87;14.47;;;;;;;11.39;100.00;95607.88;4974733;28;20205;-71
2022/05/10 01:26:41;;;;;;;18.93;14.73;;;;;;;11.33;100.00;95609.50;4974198;28;20456;-71
2022/05/10 01:29:13;;;;;;;14.13;12.67;;;;;;;11.31;100.00;95607.16;4974524;28;20184;-75
2022/05/10 01:33:29;;;;;;;15.03;13.43;;;;;;;11.19;100.00;95606.84;4973930;28;20210;-59
2022/05/10 01:34:35;;;;;;;16.60;14.27;;;;;;;11.18;100.00;95597.88;4974924;28;20175;-59
2022/05/10 01:37:07;;;;;;;15.93;14.27;;;;;;;11.20;100.00;95600.22;4974316;28;20199;-60
2022/05/10 01:39:45;;;;;;;17.90;14.83;;;;;;;11.18;100.00;95591.66;4974328;28;20189;-60
2022/05/10 01:42:27;;;;;;;15.53;13.50;;;;;;;11.12;100.00;95593.25;4974448;28;20220;-60
2022/05/10 01:45:00;;;;;;;15.27;13.77;;;;;;;11.09;100.00;95585.84;4974084;28;20300;-60
2022/05/10 01:47:37;;;;;;;13.93;12.57;;;;;;;11.08;100.00;95592.50;4973994;28;20191;-57
2022/05/10 01:50:25;;;;;;;14.67;13.17;;;;;;;11.06;100.00;95595.63;4974078;28;20188;-61
2022/05/10 01:53:10;;;;;;;14.63;13.13;;;;;;;11.02;100.00;95588.63;4974184;28;20192;-58
2022/05/10 01:55:39;;;;;;;16.20;13.20;;;;;;;10.94;100.00;95587.91;4974516;28;20281;-58
2022/05/10 01:58:24;;;;;;;15.70;13.73;;;;;;;10.95;100.00;95577.72;4976350;28;20207;-58
2022/05/10 02:00:57;;;;;;;16.63;13.67;;;;;;;10.94;100.00;95581.66;4977060;28;20259;-58
2022/05/10 02:03:28;;;;;;;14.10;12.80;;;;;;;10.97;100.00;95586.31;4978013;28;20208;-58
2022/05/10 02:06:12;;;;;;;14.87;12.83;;;;;;;10.90;100.00;95591.84;4977198;28;20211;-59
2022/05/10 02:08:51;;;;;;;13.67;12.27;;;;;;;10.84;100.00;95587.97;4977064;28;20192;-59
2022/05/10 02:11:17;;;;;;;14.90;12.80;;;;;;;10.75;100.00;95587.63;4977319;28;20197;-62
2022/05/10 02:13:52;;;;;;;14.67;12.57;;;;;;;10.72;100.00;95596.63;4976846;28;20192;-62
2022/05/10 02:16:40;;;;;;;14.90;13.40;;;;;;;10.68;100.00;95596.66;4977313;28;20193;-62
2022/05/10 02:19:33;;;;;;;15.63;13.50;;;;;;;10.79;100.00;95588.38;4977503;28;20193;-62
2022/05/10 02:22:08;;;;;;;14.10;12.30;;;;;;;10.83;100.00;95581.72;4976889;28;20216;-61
2022/05/10 02:24:55;;;;;;;14.53;12.67;;;;;;;10.79;100.00;95586.44;4977270;28;20260;-58
2022/05/10 02:27:35;;;;;;;13.73;12.33;;;;;;;10.80;100.00;95592.66;4977183;28;20196;-60
2022/05/10 02:30:07;;;;;;;14.57;13.10;;;;;;;10.81;100.00;95583.31;4977104;28;20252;-61
2022/05/10 02:35:23;;;;;;;17.03;15.20;;;;;;;10.55;100.00;95581.88;4978264;28;20192;-59
2022/05/10 02:37:49;;;;;;;16.77;13.87;;;;;;;10.55;100.00;95578.38;4976292;28;20188;-60
2022/05/10 02:40:15;;;;;;;15.37;13.87;;;;;;;10.55;100.00;95584.63;4976336;28;20200;-59
2022/05/10 02:42:43;;;;;;;14.10;12.70;;;;;;;10.56;100.00;95585.41;4976491;28;20192;-61
2022/05/10 02:45:09;;;;;;;14.13;12.60;;;;;;;10.54;100.00;95577.59;4976556;28;20219;-62
2022/05/10 02:47:38;;;;;;;15.13;12.87;;;;;;;10.49;100.00;95572.53;4976533;28;20201;-59
2022/05/10 02:50:08;;;;;;;15.70;12.93;;;;;;;10.45;100.00;95576.47;4976273;28;20264;-61
2022/05/10 02:52:33;;;;;;;16.53;13.80;;;;;;;10.47;100.00;95571.38;4976743;28;20243;-59
2022/05/10 02:55:12;;;;;;;17.20;14.77;;;;;;;10.50;100.00;95573.31;4976431;28;20193;-59
2022/05/10 02:57:37;;;;;;;15.83;13.80;;;;;;;10.49;100.00;95574.50;4976195;28;20283;-59
2022/05/10 03:00:06;;;;;;;13.87;12.47;;;;;;;10.45;100.00;95560.09;4976015;28;20215;-59
2022/05/10 03:02:37;;;;;;;14.80;13.30;;;;;;;10.46;100.00;95561.66;4976674;28;20216;-60
2022/05/10 03:05:04;;;;;;;16.50;13.40;;;;;;;10.48;100.00;95559.31;4976306;28;20208;-62
2022/05/10 03:07:30;;;;;;;14.33;12.83;;;;;;;10.44;100.00;95558.53;4976536;28;20245;-63
2022/05/10 03:09:56;;;;;;;13.93;12.43;;;;;;;10.41;100.00;95553.88;4975941;28;20252;-62
2022/05/10 03:12:22;;;;;;;16.37;13.23;;;;;;;10.40;100.00;95546.84;4976296;28;20180;-62
2022/05/10 03:14:48;;;;;;;15.43;11.97;;;;;;;10.39;100.00;95553.50;4976421;28;20197;-63
2022/05/10 03:17:13;;;;;;;14.37;12.87;;;;;;;10.41;100.00;95553.88;4975707;28;20201;-63
2022/05/10 03:19:40;;;;;;;16.63;13.13;;;;;;;10.44;100.00;95553.06;4975941;28;20187;-61
2022/05/10 03:22:06;;;;;;;13.23;11.93;;;;;;;10.43;100.00;95546.06;4976269;28;20280;-58
2022/05/10 03:24:31;;;;;;;13.57;12.27;;;;;;;10.38;100.00;95551.94;4975540;28;20201;-59
2022/05/10 03:26:59;;;;;;;13.53;12.03;;;;;;;10.33;100.00;95546.88;4975814;28;20189;-59
2022/05/10 03:29:25;;;;;;;13.17;11.77;;;;;;;10.32;100.00;95546.13;4975796;28;20196;-59
2022/05/10 03:31:51;;;;;;;13.43;12.03;;;;;;;10.34;100.00;95541.03;4975867;28;20176;-59
2022/05/10 03:37:02;;;;;;;13.30;11.90;;;;;;;10.41;100.00;95542.97;4977117;28;20268;-58
2022/05/10 03:39:27;;;;;;;14.43;12.50;;;;;;;10.39;100.00;95545.31;4975615;28;20219;-58
2022/05/10 03:41:52;;;;;;;14.03;12.37;;;;;;;10.41;100.00;95534.78;4975671;28;20339;-74
2022/05/10 03:44:18;;;;;;;12.83;11.50;;;;;;;10.42;100.00;95536.31;4975871;28;20192;-68
2022/05/10 03:46:46;;;;;;;13.30;11.60;;;;;;;10.43;100.00;95532.41;4975659;28;20196;-67
2022/05/10 03:49:12;;;;;;;13.80;11.00;;;;;;;10.47;100.00;95536.69;4975709;28;20338;-67
2022/05/10 03:51:38;;;;;;;12.77;11.03;;;;;;;10.50;100.00;95535.09;4975530;28;20279;-67
2022/05/10 03:54:03;;;;;;;12.97;9.97;;;;;;;10.55;100.00;95531.94;4975661;28;20184;-69
2022/05/10 03:56:29;;;;;;;11.53;10.43;;;;;;;10.69;100.00;95526.41;4975317;28;20188;-61
2022/05/10 03:58:54;;;;;;;11.90;10.20;;;;;;;10.86;100.00;95522.78;4975331;28;20189;-59
2022/05/10 04:01:20;;;;;;;12.27;10.77;;;;;;;11.03;100.00;95525.38;4975539;28;20265;-62
2022/05/10 04:03:46;;;;;;;15.70;11.17;;;;;;;11.17;100.00;95522.53;4975650;28;20192;-63
2022/05/10 04:06:12;;;;;;;15.30;11.37;;;;;;;11.43;100.00;95526.56;4975224;28;20221;-62
2022/05/10 04:08:37;;;;;;;11.80;10.10;;;;;;;11.66;100.00;95521.31;4974818;28;20281;-61
2022/05/10 04:11:05;;;;;;;10.93;9.87;;;;;;;11.86;100.00;95525.00;4975491;28;20191;-61
2022/05/10 04:13:31;;;;;;;15.37;12.50;;;;;;;11.96;100.00;95532.31;4974968;28;20205;-61
2022/05/10 04:15:57;;;;;;;18.23;16.20;;;;;;;12.06;100.00;95539.66;4974966;28;20242;-70
2022/05/10 04:18:23;;;;;;;14.87;13.37;;;;;;;12.32;100.00;95547.16;4975202;28;20211;-58
2022/05/10 04:20:48;;;;;;;13.33;11.93;;;;;;;12.63;100.00;95543.19;4974440;28;20202;-58
2022/05/10 04:23:13;;;;;;;13.37;9.83;;;;;;;12.84;100.00;95553.88;4974658;28;20193;-57
2022/05/10 04:25:38;;;;;;;11.10;8.73;;;;;;;12.90;100.00;95569.44;4974395;28;20204;-58
2022/05/10 04:28:05;;;;;;;9.83;8.80;;;;;;;13.35;100.00;95572.72;4974600;28;20200;-59
2022/05/10 04:30:30;;;;;;;11.27;8.97;;;;;;;13.60;100.00;95578.56;4974532;28;20216;-59
2022/05/10 04:32:56;;;;;;;9.23;8.33;;;;;;;13.90;100.00;95591.38;4974692;28;20215;-59
2022/05/10 04:35:21;;;;;;;11.90;9.10;;;;;;;13.99;100.00;95608.09;4974771;28;20276;-61
2022/05/10 04:37:46;;;;;;;13.57;8.97;;;;;;;14.16;100.00;95621.50;4974848;28;20247;-61
2022/05/10 04:42:56;;;;;;;10.33;8.40;;;;;;;14.52;100.00;95638.13;4975883;28;20215;-60
2022/05/10 04:45:22;;;;;;;8.40;7.60;;;;;;;14.64;100.00;95645.75;4974494;28;20207;-60
2022/05/10 04:47:47;;;;;;;9.03;8.07;;;;;;;14.64;100.00;95652.00;4974817;28;20208;-61
2022/05/10 04:50:12;;;;;;;8.93;7.57;;;;;;;14.54;100.00;95660.47;4974504;28;20197;-60
2022/05/10 04:52:39;;;;;;;8.93;7.83;;;;;;;14.49;100.00;95667.22;4974948;28;20300;-58
2022/05/10 04:55:08;;;;;;;10.17;8.37;;;;;;;14.81;100.00;95664.63;4974638;28;20279;-59
2022/05/10 04:57:34;;;;;;;8.17;7.33;;;;;;;15.10;100.00;95662.84;4975115;28;20189;-60
2022/05/10 05:00:00;;;;;;;9.00;7.90;;;;;;;15.37;100.00;95665.44;4974260;28;20646;-60
2022/05/10 05:02:25;;;;;;;11.90;8.63;;;;;;;15.72;100.00;95670.91;4974333;28;20188;-61
2022/05/10 05:04:50;;;;;;;8.43;7.53;;;;;;;16.24;100.00;95671.59;4974473;28;20212;-59
2022/05/10 05:07:16;;;;;;;8.90;8.07;;;;;;;16.50;100.00;95696.56;4974315;28;20259;-59
2022/05/10 05:09:41;;;;;;;8.00;6.90;;;;;;;16.59;100.00;95699.47;4974321;28;20260;-57
2022/05/10 05:12:07;;;;;;;7.83;7.10;;;;;;;17.12;100.00;95707.81;4974071;28;20180;-62
2022/05/10 05:14:32;;;;;;;8.47;7.63;;;;;;;17.09;100.00;95721.75;4974129;28;20199;-64
2022/05/10 05:16:59;;;;;;;9.63;7.17;;;;;;;17.20;100.00;95734.03;4973823;28;20235;-66
2022/05/10 05:19:24;;;;;;;8.23;7.30;;;;;;;17.49;100.00;95734.81;4974049;28;20292;-65
2022/05/10 05:21:50;;;;;;;8.63;7.73;;;;;;;17.48;100.00;95746.28;4974199;28;20212;-65
2022/05/10 05:24:15;;;;;;;6.97;6.30;;;;;;;17.48;100.00;95755.31;4973628;28;20199;-63
2022/05/10 05:26:40;;;;;;;7.33;6.63;;;;;;;17.74;100.00;95767.97;4973672;28;20234;-63
2022/05/10 05:29:05;;;;;;;8.37;6.50;;;;;;;18.01;100.00;95770.31;4973626;28;20192;-59
2022/05/10 05:31:31;;;;;;;7.07;6.23;;;;;;;18.52;100.00;95791.22;4972816;28;20195;-61
2022/05/10 05:33:57;;;;;;;7.10;6.07;;;;;;;18.57;100.00;95790.66;4973563;28;20196;-61
2022/05/10 05:36:22;;;;;;;6.97;6.33;;;;;;;18.43;100.00;95802.22;4974053;28;20196;-60
2022/05/10 05:38:50;;;;;;;6.50;5.90;;;;;;;18.69;100.00;95803.72;4973242;28;20196;-60
2022/05/10 05:41:16;;;;;;;6.60;6.00;;;;;;;19.32;100.00;95809.88;4975050;28;20192;-61
2022/05/10 05:43:41;;;;;;;6.47;5.77;;;;;;;19.63;100.00;95824.56;4973473;28;20192;-60
2022/05/10 05:46:08;;;;;;;6.17;5.57;;;;;;;19.82;100.00;95829.03;4973515;28;20307;-60
2022/05/10 05:48:33;;;;;;;6.60;6.10;;;;;;;20.55;100.00;95827.44;4973508;28;20189;-65
2022/05/10 05:50:58;;;;;;;6.40;5.73;;;;;;;20.73;100.00;95842.16;4973253;28;20192;-59
2022/05/10 05:53:26;;;;;;;10.07;6.00;;;;;;;21.00;100.00;95839.47;4973236;28;20177;-59
2022/05/10 05:55:53;;;;;;;6.20;5.70;;;;;;;21.71;98.86;95838.00;4973340;28;20196;-59
2022/05/10 05:58:19;;;;;;;6.80;6.20;;;;;;;22.11;94.17;95841.34;4974183;28;20243;-59
2022/05/10 06:00:44;;;;;;;6.30;5.70;;;;;;;22.38;93.76;95823.81;4973287;28;20193;-58
2022/05/10 06:03:10;;;;;;;6.07;5.33;;;;;;;22.70;94.44;95803.59;4973526;28;20188;-58
2022/05/10 06:05:35;;;;;;;10.77;5.67;;;;;;;23.05;92.25;95828.94;4973515;28;20239;-60
2022/05/10 06:08:02;;;;;;;5.77;5.33;;;;;;;23.16;89.74;95849.44;4973290;28;20193;-67
2022/05/10 06:10:27;;;;;;;6.63;5.27;;;;;;;23.78;86.64;95853.03;4973801;28;20288;-71
2022/05/10 06:12:52;;;;;;;7.07;6.20;;;;;;;24.08;84.16;95856.69;4989408;28;20267;-68
2022/05/10 06:15:18;;;;;;;5.78;5.28;;;;;;;23.94;79.67;95863.03;4973312;28;20279;-69
2022/05/10 06:17:45;;;;;;;6.55;5.53;;;;;;;24.83;75.40;95871.72;4974229;28;20216;-67
2022/05/10 06:20:15;;;;;;;6.60;5.97;;;;;;;24.90;72.04;95883.28;4973457;28;20188;-70
2022/05/10 06:22:44;;;;;;;5.18;4.65;;;;;;;25.18;71.67;95887.25;4973066;28;20177;-71
2022/05/10 06:25:11;;;;;;;5.65;5.18;;;;;;;25.43;67.67;95874.66;4973727;28;20212;-61
2022/05/10 06:27:36;;;;;;;5.82;4.78;;;;;;;25.35;69.01;95881.94;4972890;28;20195;-61
2022/05/10 06:30:02;;;;;;;5.35;4.93;;;;;;;25.70;65.08;95881.88;4972896;28;20271;-61
2022/05/10 06:32:29;;;;;;;5.63;5.03;;;;;;;26.16;64.95;95885.50;4973007;28;20243;-62
2022/05/10 06:34:55;;;;;;;5.43;4.93;;;;;;;26.31;62.36;95886.16;4972953;28;20227;-62
2022/05/10 06:40:11;;;;;;;7.07;5.13;;;;;;;26.13;63.84;95880.88;4974303;28;20191;-62
2022/05/10 06:42:37;;;;;;;6.05;4.75;;;;;;;26.31;62.86;95889.72;4973599;28;20276;-60
2022/05/10 06:45:03;;;;;;;5.57;4.45;;;;;;;27.41;55.88;95876.66;4975718;28;20303;-61
2022/05/10 06:47:28;;;;;;;4.93;4.47;;;;;;;27.35;53.96;95889.88;4976217;28;20214;-62
2022/05/10 06:49:54;;;;;;;5.50;4.68;;;;;;;27.01;54.67;95890.91;4975919;28;20256;-61
2022/05/10 06:52:19;;;;;;;6.75;5.50;;;;;;;28.03;52.15;95887.69;4975934;28;20254;-61
2022/05/10 06:54:45;;;;;;;6.07;4.70;;;;;;;27.60;52.13;95883.38;4976351;28;20191;-61
2022/05/10 06:57:11;;;;;;;5.35;4.93;;;;;;;27.56;54.13;95882.84;4976139;28;20188;-61
2022/05/10 06:59:36;;;;;;;5.90;5.00;;;;;;;27.76;51.13;95879.88;4991828;28;20272;-62
2022/05/10 07:02:02;;;;;;;5.82;4.95;;;;;;;28.76;48.03;95877.38;4975819;28;20193;-60
2022/05/10 07:04:27;;;;;;;4.63;4.30;;;;;;;28.60;47.34;95883.75;4975691;28;20184;-58
2022/05/10 07:06:52;;;;;;;4.90;4.45;;;;;;;28.77;47.45;95870.47;4976764;28;20263;-59
2022/05/10 07:09:18;;;;;;;5.47;4.80;;;;;;;28.98;46.79;95864.06;4975701;28;20173;-59
2022/05/10 07:11:44;;;;;;;4.82;4.43;;;;;;;29.17;46.40;95869.97;4975892;28;20191;-59
2022/05/10 07:14:09;;;;;;;5.47;4.60;;;;;;;30.01;43.88;95869.22;4975834;28;20215;-58
2022/05/10 07:16:35;;;;;;;5.35;4.30;;;;;;;30.17;43.21;95866.34;4975654;28;20255;-59
2022/05/10 07:19:00;;;;;;;5.25;4.75;;;;;;;30.12;42.83;95864.28;4976609;28;20252;-61
2022/05/10 07:21:25;;;;;;;5.43;4.65;;;;;;;30.79;42.40;95870.34;4976177;28;20176;-63
2022/05/10 07:23:50;;;;;;;5.32;4.82;;;;;;;30.54;41.98;95871.50;4975670;28;20282;-62
2022/05/10 07:26:16;;;;;;;5.10;4.70;;;;;;;30.29;42.43;95872.69;4975523;28;20208;-61
2022/05/10 07:28:41;;;;;;;5.20;4.80;;;;;;;30.16;42.95;95867.63;4976176;28;20184;-61
2022/05/10 07:31:07;;;;;;;6.03;5.43;;;;;;;31.38;40.89;95867.50;4975663;28;20187;-62
2022/05/10 07:33:32;;;;;;;4.78;4.47;;;;;;;30.96;39.67;95856.84;4975512;28;20292;-61
2022/05/10 07:38:42;;;;;;;4.85;4.45;;;;;;;30.27;41.76;95858.34;4977068;28;20224;-61
2022/05/10 07:41:08;;;;;;;4.90;4.40;;;;;;;31.10;40.78;95861.34;4975458;28;20216;-60
2022/05/10 07:43:37;;;;;;;4.80;4.50;;;;;;;31.35;39.67;95870.66;4976592;28;20189;-60
2022/05/10 07:46:03;;;;;;;6.72;4.75;;;;;;;31.04;39.27;95869.09;4975763;28;20215;-60
2022/05/10 07:48:29;;;;;;;6.07;4.97;;;;;;;31.09;39.15;95862.63;4975417;28;20227;-61
2022/05/10 07:50:54;;;;;;;9.10;4.78;;;;;;;31.25;39.18;95863.81;4975150;28;20180;-60
2022/05/10 07:53:19;;;;;;;5.38;4.50;;;;;;;31.89;38.56;95857.19;4976132;28;20203;-60
2022/05/10 07:55:45;;;;;;;4.68;4.28;;;;;;;31.09;38.33;95860.59;4974253;28;20188;-67
2022/05/10 07:58:11;;;;;;;4.75;4.32;;;;;;;30.95;38.58;95849.66;4976117;28;20196;-59
2022/05/10 08:00:38;;;;;;;4.65;4.18;;;;;;;30.89;37.91;95851.78;4975110;28;20247;-61
2022/05/10 08:03:19;;;;;;;6.43;4.43;;;;;;;30.88;37.85;95851.00;4975197;28;20188;-60
2022/05/10 08:05:45;;;;;;;5.13;4.38;;;;;;;30.98;38.77;95851.44;4975506;28;20240;-60
2022/05/10 08:08:12;;;;;;;5.03;4.53;;;;;;;31.12;37.74;95853.09;4975146;28;20216;-60
2022/05/10 08:10:39;;;;;;;4.57;4.18;;;;;;;31.74;36.38;95845.53;4975121;28;20184;-60
2022/05/10 08:13:09;;;;;;;4.55;4.15;;;;;;;32.88;35.27;95839.63;4974937;28;20196;-60
2022/05/10 08:15:34;;;;;;;4.80;4.40;;;;;;;33.34;33.60;95841.16;4991194;28;20235;-70
2022/05/10 08:17:59;;;;;;;4.72;4.32;;;;;;;33.14;33.63;95842.50;4974985;28;20204;-60
2022/05/10 08:20:25;;;;;;;5.15;4.38;;;;;;;31.98;34.34;95837.84;4974932;28;20184;-60
2022/05/10 08:22:50;;;;;;;4.90;4.20;;;;;;;31.56;35.87;95841.38;4974971;28;20196;-61
2022/05/10 08:25:15;;;;;;;4.53;4.22;;;;;;;31.29;35.39;95838.84;4974550;28;20240;-61
2022/05/10 08:27:41;;;;;;;5.00;4.50;;;;;;;31.31;36.31;95837.03;4974817;28;20215;-61
2022/05/10 08:30:07;;;;;;;4.82;4.30;;;;;;;31.28;36.09;95831.69;4974763;28;20184;-61
2022/05/10 08:32:33;;;;;;;4.95;4.50;;;;;;;30.81;37.47;95834.66;4974917;28;20196;-59
2022/05/10 08:34:58;;;;;;;5.57;4.90;;;;;;;31.17;36.48;95835.34;4976056;28;20184;-65
2022/05/10 08:37:24;;;;;;;5.40;4.90;;;;;;;30.94;36.01;95837.63;4974999;28;20192;-60
2022/05/10 08:39:49;;;;;;;5.10;4.63;;;;;;;31.73;36.38;95827.06;4974628;28;20192;-60
2022/05/10 08:42:19;;;;;;;6.28;5.07;;;;;;;31.62;35.04;95827.19;4975196;28;20189;-59
2022/05/10 08:44:52;;;;;;;5.38;4.80;;;;;;;31.46;35.45;95828.91;4974428;28;20185;-60
2022/05/10 08:47:18;;;;;;;9.90;5.78;;;;;;;30.77;36.63;95825.69;4975840;28;20208;-59
2022/05/10 08:49:51;;;;;;;12.77;5.75;;;;;;;30.53;36.54;95825.63;4974827;28;20180;-59
2022/05/10 08:52:17;;;;;;;7.60;5.68;;;;;;;30.51;36.07;95827.41;4975839;28;20180;-60
2022/05/10 08:54:44;;;;;;;5.70;5.18;;;;;;;30.04;37.50;95823.09;4974305;28;20192;-59
2022/05/10 08:57:48;;;;;;;5.28;4.78;;;;;;;30.47;34.44;95826.94;4974284;28;20191;-59
2022/05/10 09:00:28;;;;;;;6.50;5.60;;;;;;;30.52;34.94;95835.34;4974791;28;20200;-59
2022/05/10 09:02:56;;;;;;;6.43;5.10;;;;;;;30.12;36.87;95824.06;4974634;28;20192;-59
2022/05/10 09:05:29;;;;;;;6.13;5.35;;;;;;;31.33;35.39;95822.38;4974333;28;20216;-59
2022/05/10 09:07:58;;;;;;;6.88;5.25;;;;;;;31.40;35.16;95827.44;4974458;28;20189;-58
2022/05/10 09:10:32;;;;;;;6.95;5.07;;;;;;;31.57;35.87;95820.31;4990248;28;20208;-63
2022/05/10 09:13:02;;;;;;;5.57;5.03;;;;;;;30.88;34.31;95822.03;4974043;28;20195;-61
2022/05/10 09:15:33;;;;;;;6.65;6.07;;;;;;;30.82;34.36;95819.25;4974757;28;20211;-60
2022/05/10 09:17:59;;;;;;;6.93;5.28;;;;;;;31.33;34.85;95811.09;4973842;28;20239;-60
2022/05/10 09:20:24;;;;;;;5.30;4.80;;;;;;;32.05;32.65;95819.50;4973776;28;20211;-60
2022/05/10 09:23:26;;;;;;;5.60;5.00;;;;;;;30.73;34.35;95816.00;4974751;28;20200;-60
2022/05/10 09:25:55;;;;;;;7.45;5.65;;;;;;;31.94;32.58;95814.72;4990720;28;20215;-60
2022/05/10 09:28:39;;;;;;;5.30;4.80;;;;;;;31.83;33.54;95808.47;4974181;28;20184;-59
2022/05/10 09:37:23;;;;;;;6.00;5.30;;;;;;;30.52;33.05;95812.03;4975445;28;20199;-66
2022/05/10 09:39:57;;;;;;;5.53;4.97;;;;;;;31.35;32.50;95803.59;4963800;28;20247;-66
2022/05/10 09:42:38;;;;;;;5.60;5.10;;;;;;;31.83;31.92;95803.56;4990120;28;20204;-65
2022/05/10 09:45:26;;;;;;;6.07;5.57;;;;;;;32.05;31.37;95808.94;4990149;28;20208;-66
2022/05/10 09:47:54;;;;;;;6.55;5.95;;;;;;;32.03;31.45;95805.88;4974250;28;20192;-68
2022/05/10 09:50:25;;;;;;;7.43;5.38;;;;;;;32.08;31.21;95813.50;4989996;28;20198;-65
2022/05/10 09:53:26;;;;;;;6.60;5.25;;;;;;;31.51;31.17;95819.63;4973535;28;20185;-65
2022/05/10 09:56:05;;;;;;;8.05;6.88;;;;;;;32.10;31.13;95805.28;4973202;28;20187;-65
2022/05/10 09:58:37;;;;;;;7.05;5.85;;;;;;;31.48;32.33;95817.06;4973374;28;20196;-66
2022/05/10 10:01:06;;;;;;;6.13;5.50;;;;;;;31.63;31.93;95806.88;4973368;28;20269;-65
2022/05/10 10:03:40;;;;;;;6.07;5.47;;;;;;;30.50;32.78;95806.94;4973617;28;20235;-66
2022/05/10 10:06:21;;;;;;;6.05;5.50;;;;;;;30.76;33.32;95804.44;4973557;28;20267;-60
2022/05/10 10:08:55;;;;;;;6.45;5.70;;;;;;;31.56;32.33;95801.81;4973856;28;20275;-66
2022/05/10 10:11:24;;;;;;;7.15;5.13;;;;;;;32.67;31.25;95793.34;4973668;28;20188;-65
2022/05/10 10:13:58;;;;;;;5.82;4.90;;;;;;;32.60;31.61;95785.50;4989494;28;20188;-65
2022/05/10 10:16:45;;;;;;;5.40;4.82;;;;;;;32.48;30.72;95789.81;4973339;28;20212;-65
2022/05/10 10:19:22;;;;;;;6.07;5.40;;;;;;;33.45;29.34;95796.38;4976116;28;20197;-65
2022/05/10 10:22:12;;;;;;;6.38;4.80;;;;;;;33.50;28.83;95789.84;4961360;28;20195;-65
2022/05/10 10:24:54;;;;;;;4.95;4.55;;;;;;;33.22;29.22;95788.81;4978005;28;20188;-59
2022/05/10 10:27:23;;;;;;;5.13;4.63;;;;;;;32.78;29.31;95784.66;4976956;28;20244;-62
2022/05/10 10:29:54;;;;;;;6.90;5.50;;;;;;;32.03;30.09;95783.25;4976656;28;20191;-61
2022/05/10 10:32:29;;;;;;;6.38;5.75;;;;;;;31.73;30.44;95779.78;4977771;28;20180;-61
2022/05/10 10:35:16;;;;;;;7.78;6.97;;;;;;;31.92;30.78;95777.75;4977288;28;20192;-61
2022/05/10 10:37:57;;;;;;;6.15;5.55;;;;;;;32.08;30.26;95776.75;4977640;28;20224;-61
2022/05/10 10:40:31;;;;;;;8.80;7.90;;;;;;;32.49;28.79;95771.53;4977667;28;20243;-61
2022/05/10 10:43:09;;;;;;;4.93;4.53;;;;;;;32.56;28.17;95773.72;4976499;28;20215;-63
2022/05/10 10:45:42;;;;;;;6.10;4.80;;;;;;;32.30;28.19;95778.50;4993191;28;20212;-68
2022/05/10 10:48:27;;;;;;;5.07;4.43;;;;;;;31.44;28.88;95772.19;4976244;28;20224;-68
2022/05/10 10:50:53;;;;;;;4.97;4.47;;;;;;;31.88;30.17;95771.66;4976279;28;20192;-68
2022/05/10 10:53:22;;;;;;;5.38;4.88;;;;;;;31.49;28.62;95773.44;4976155;28;20180;-67
2022/05/10 10:56:02;;;;;;;5.57;5.15;;;;;;;31.64;28.71;95763.19;4992425;28;20192;-67
2022/05/10 10:59:01;;;;;;;5.32;4.93;;;;;;;31.05;29.60;95769.78;4976337;28;20180;-67
2022/05/10 11:01:57;;;;;;;4.85;4.45;;;;;;;31.78;27.26;95764.03;4976421;28;20184;-61
2022/05/10 11:04:58;;;;;;;4.85;4.45;;;;;;;30.24;29.52;95763.53;4976288;28;20185;-63
2022/05/10 11:07:56;;;;;;;6.38;5.00;;;;;;;31.54;29.01;95758.47;4976343;28;20214;-63
2022/05/10 11:10:50;;;;;;;5.68;5.18;;;;;;;31.21;29.60;95759.59;4976035;28;20203;-63
2022/05/10 11:13:27;;;;;;;6.68;5.22;;;;;;;30.56;28.90;95750.47;4976502;28;20194;-65
2022/05/10 11:16:00;;;;;;;5.88;5.30;;;;;;;30.40;30.18;95754.19;4976180;28;20184;-64
2022/05/10 11:18:37;;;;;;;5.90;5.18;;;;;;;30.34;29.18;95759.84;4976333;28;20188;-62
2022/05/10 11:21:12;;;;;;;4.57;4.20;;;;;;;30.25;29.35;95753.78;4975737;28;20184;-60
2022/05/10 11:23:59;;;;;;;5.28;4.68;;;;;;;29.50;31.18;95748.81;4992102;28;20270;-62
2022/05/10 11:26:41;;;;;;;5.38;4.97;;;;;;;29.31;31.64;95728.19;4976242;28;20200;-61
2022/05/10 11:29:43;;;;;;;8.05;5.03;;;;;;;28.75;33.55;95743.63;4975982;28;20283;-61
2022/05/10 11:32:27;;;;;;;6.57;5.97;;;;;;;28.16;33.67;95744.66;4976231;28;20196;-61
2022/05/10 11:35:28;;;;;;;6.00;5.40;;;;;;;27.39;35.61;95741.66;4975790;28;20180;-62
2022/05/10 11:38:02;;;;;;;7.32;5.35;;;;;;;27.80;35.30;95731.59;4958316;28;20203;-58
2022/05/10 11:40:47;;;;;;;5.95;5.35;;;;;;;28.36;35.13;95728.84;4972744;28;20299;-58
2022/05/10 11:43:21;;;;;;;6.28;5.63;;;;;;;28.68;34.60;95732.91;4975855;28;20184;-59
2022/05/10 11:46:37;;;;;;;6.82;5.30;;;;;;;28.78;33.61;95725.75;4975521;28;20219;-59
2022/05/10 11:49:27;;;;;;;5.70;5.20;;;;;;;28.00;34.42;95720.13;4991795;28;20216;-59
2022/05/10 11:52:31;;;;;;;7.13;6.50;;;;;;;27.77;34.88;95712.94;4991716;28;20192;-59
2022/05/10 11:55:21;;;;;;;7.47;6.40;;;;;;;27.85;35.69;95705.56;4939576;29;20191;-60
2022/05/10 11:57:47;;;;;;;6.53;5.90;;;;;;;27.85;35.37;95708.38;4939599;29;20193;-61
2022/05/10 12:00:31;;;;;;;6.70;5.90;;;;;;;27.95;35.56;95712.50;4960573;28;20203;-61
2022/05/10 12:03:01;;;;;;;6.45;5.85;;;;;;;27.71;36.66;95712.16;4976084;28;20196;-61